createdAt,value
2023-01-19T00:00:51.753Z,11.35
2023-01-19T00:03:18.826Z,11.55
2023-01-19T00:05:46.094Z,11.88
2023-01-19T00:08:16.123Z,11.57
2023-01-19T00:10:44.988Z,11.25
2023-01-19T00:13:12.078Z,9.27
2023-01-19T00:15:39.162Z,10.73
2023-01-19T00:18:06.662Z,10.38
2023-01-19T00:20:35.646Z,11.23
2023-01-19T00:23:04.629Z,11.63
2023-01-19T00:25:31.696Z,11.32
2023-01-19T00:28:00.630Z,11.32
2023-01-19T00:30:28.380Z,10.32
2023-01-19T00:32:55.702Z,11.25
2023-01-19T00:35:22.396Z,9.90
2023-01-19T00:37:49.446Z,9.70
2023-01-19T00:40:16.688Z,10.50
2023-01-19T00:42:48.598Z,10.43
2023-01-19T00:45:21.037Z,11.05
2023-01-19T00:47:49.296Z,7.97
2023-01-19T00:50:17.078Z,10.32
2023-01-19T00:52:44.986Z,8.70
2023-01-19T00:55:13.449Z,10.25
2023-01-19T00:57:40.859Z,10.30
2023-01-19T01:00:15.216Z,11.02
2023-01-19T01:02:44.336Z,10.85
2023-01-19T01:05:12.417Z,10.57
2023-01-19T01:07:41.408Z,8.48
2023-01-19T01:10:10.500Z,8.43
2023-01-19T01:12:37.830Z,8.98
2023-01-19T01:15:10.169Z,10.18
2023-01-19T01:17:37.784Z,8.48
2023-01-19T01:20:05.534Z,7.45
2023-01-19T01:22:32.288Z,6.70
2023-01-19T01:24:59.152Z,6.15
2023-01-19T01:27:26.051Z,5.50
2023-01-19T01:29:52.810Z,4.75
2023-01-19T01:32:19.773Z,4.15
2023-01-19T01:34:46.519Z,5.20
2023-01-19T01:37:13.433Z,3.55
2023-01-19T01:39:40.321Z,3.05
2023-01-19T01:42:17.619Z,3.67
2023-01-19T01:44:52.135Z,2.45
2023-01-19T01:47:23.379Z,2.63
2023-01-19T01:50:03.625Z,2.90
2023-01-19T01:52:33.127Z,2.25
2023-01-19T01:55:01.028Z,2.20
2023-01-19T01:57:28.102Z,2.10
2023-01-19T01:59:56.828Z,2.45
2023-01-19T02:02:46.449Z,1.80
2023-01-19T02:05:17.957Z,2.17
2023-01-19T02:08:22.248Z,1.48
2023-01-19T02:11:08.139Z,2.28
2023-01-19T02:13:38.983Z,2.10
2023-01-19T02:16:10.088Z,1.67
2023-01-19T02:18:38.137Z,2.03
2023-01-19T02:21:26.148Z,2.30
2023-01-19T02:23:55.149Z,2.00
2023-01-19T02:26:25.202Z,2.00
2023-01-19T02:29:08.931Z,1.95
2023-01-19T02:31:37.367Z,1.73
2023-01-19T02:34:06.258Z,1.80
2023-01-19T02:36:44.940Z,1.13
2023-01-19T02:39:12.634Z,1.27
2023-01-19T02:41:46.593Z,0.95
2023-01-19T02:44:15.056Z,1.13
2023-01-19T02:46:41.962Z,0.82
2023-01-19T02:49:08.814Z,1.02
2023-01-19T02:51:35.880Z,1.00
2023-01-19T02:54:27.513Z,1.27
2023-01-19T02:57:18.428Z,0.68
2023-01-19T03:00:21.299Z,0.60
2023-01-19T03:03:27.184Z,0.80
2023-01-19T03:06:18.431Z,1.20
2023-01-19T03:09:01.614Z,0.80
2023-01-19T03:11:37.110Z,0.70
2023-01-19T03:14:15.756Z,1.00
2023-01-19T03:16:55.342Z,0.70
2023-01-19T03:19:27.385Z,0.70
2023-01-19T03:22:10.859Z,0.80
2023-01-19T03:24:41.776Z,0.60
2023-01-19T03:27:40.898Z,0.50
2023-01-19T03:30:16.052Z,0.40
2023-01-19T03:32:48.518Z,0.40
2023-01-19T03:35:17.389Z,0.98
2023-01-19T03:37:46.025Z,0.50
2023-01-19T03:40:14.046Z,0.43
2023-01-19T03:42:42.258Z,0.45
2023-01-19T03:45:09.377Z,0.75
2023-01-19T03:47:36.736Z,0.50
2023-01-19T03:50:08.960Z,0.40
2023-01-19T03:52:35.676Z,0.63
2023-01-19T03:55:04.780Z,0.40
2023-01-19T03:57:32.319Z,0.45
2023-01-19T03:59:59.163Z,0.55
2023-01-19T04:02:25.975Z,0.55
2023-01-19T04:04:52.969Z,1.00
2023-01-19T04:07:19.879Z,0.90
2023-01-19T04:09:46.763Z,0.70
2023-01-19T04:12:13.572Z,0.55
2023-01-19T04:14:40.496Z,0.93
2023-01-19T04:17:07.395Z,0.10
2023-01-19T04:19:34.243Z,0.55
2023-01-19T04:22:02.011Z,0.40
2023-01-19T04:24:28.951Z,0.50
2023-01-19T04:26:56.044Z,0.40
2023-01-19T04:29:24.395Z,0.50
2023-01-19T04:31:51.187Z,0.60
2023-01-19T04:34:17.914Z,0.60
2023-01-19T04:36:45.494Z,0.70
2023-01-19T04:39:12.502Z,0.55
2023-01-19T04:41:39.446Z,0.55
2023-01-19T04:44:06.474Z,0.55
2023-01-19T04:46:33.419Z,0.60
2023-01-19T04:49:00.461Z,0.65
2023-01-19T04:51:28.708Z,0.75
2023-01-19T04:53:55.592Z,0.88
2023-01-19T04:56:22.436Z,1.35
2023-01-19T04:58:49.304Z,0.75
2023-01-19T05:01:16.323Z,0.90
2023-01-19T05:03:43.257Z,0.85
2023-01-19T05:06:09.990Z,0.77
2023-01-19T05:08:36.666Z,0.80
2023-01-19T05:11:03.481Z,0.80
2023-01-19T05:13:30.226Z,0.85
2023-01-19T05:15:56.988Z,0.40
2023-01-19T05:18:24.046Z,1.00
2023-01-19T05:20:51.138Z,0.70
2023-01-19T05:23:17.995Z,0.60
2023-01-19T05:25:44.843Z,1.35
2023-01-19T05:28:11.796Z,0.90
2023-01-19T05:30:38.912Z,1.23
2023-01-19T05:33:06.009Z,1.00
2023-01-19T05:35:36.186Z,1.00
2023-01-19T05:38:03.835Z,1.08
2023-01-19T05:40:30.675Z,1.33
2023-01-19T05:43:01.357Z,1.67
2023-01-19T05:45:28.801Z,1.35
2023-01-19T05:47:56.033Z,1.27
2023-01-19T05:50:23.571Z,2.00
2023-01-19T05:52:53.286Z,0.90
2023-01-19T05:55:20.931Z,1.20
2023-01-19T05:57:47.887Z,1.20
2023-01-19T06:00:15.244Z,1.33
2023-01-19T06:02:42.159Z,1.50
2023-01-19T06:05:09.683Z,1.38
2023-01-19T06:07:36.536Z,1.25
2023-01-19T06:10:03.357Z,1.50
2023-01-19T06:12:30.051Z,1.30
2023-01-19T06:14:56.770Z,0.98
2023-01-19T06:17:23.632Z,1.23
2023-01-19T06:19:50.484Z,1.70
2023-01-19T06:22:17.221Z,1.40
2023-01-19T06:24:43.992Z,1.48
2023-01-19T06:27:11.337Z,1.27
2023-01-19T06:29:38.688Z,1.55
2023-01-19T06:32:05.953Z,0.93
2023-01-19T06:34:32.822Z,1.42
2023-01-19T06:36:59.655Z,1.38
2023-01-19T06:39:27.381Z,1.67
2023-01-19T06:41:54.207Z,1.50
2023-01-19T06:44:21.144Z,2.28
2023-01-19T06:46:49.364Z,2.63
2023-01-19T06:49:16.111Z,5.80
2023-01-19T06:51:42.989Z,3.67
2023-01-19T06:54:09.862Z,2.20
2023-01-19T06:56:36.806Z,2.28
2023-01-19T06:59:03.965Z,2.50
2023-01-19T07:01:30.912Z,2.05
2023-01-19T07:03:57.789Z,2.35
2023-01-19T07:06:24.894Z,2.20
2023-01-19T07:08:51.544Z,15.52
2023-01-19T07:11:26.879Z,11.70
2023-01-19T07:13:58.428Z,7.53
2023-01-19T07:16:25.454Z,11.13
2023-01-19T07:18:52.615Z,8.25
2023-01-19T07:21:19.465Z,4.90
2023-01-19T07:23:49.144Z,5.63
2023-01-19T07:26:18.696Z,4.40
2023-01-19T07:28:47.353Z,3.67
2023-01-19T07:31:15.774Z,3.03
2023-01-19T07:33:42.743Z,3.70
2023-01-19T07:36:10.072Z,3.05
2023-01-19T07:38:36.900Z,3.05
2023-01-19T07:41:06.110Z,3.10
2023-01-19T07:43:33.787Z,2.95
2023-01-19T07:46:03.044Z,2.75
2023-01-19T07:48:30.118Z,2.85
2023-01-19T07:51:10.414Z,3.08
2023-01-19T07:53:40.020Z,3.40
2023-01-19T07:56:07.762Z,3.92
2023-01-19T07:58:34.979Z,2.45
2023-01-19T08:01:07.149Z,3.17
2023-01-19T08:03:34.554Z,2.70
2023-01-19T08:06:02.556Z,2.55
2023-01-19T08:08:33.420Z,2.72
2023-01-19T08:11:00.246Z,2.67
2023-01-19T08:13:27.966Z,2.92
2023-01-19T08:15:55.028Z,2.38
2023-01-19T08:18:22.275Z,2.42
2023-01-19T08:20:49.290Z,3.08
2023-01-19T08:23:17.885Z,3.22
2023-01-19T08:25:45.312Z,2.38
2023-01-19T08:28:14.517Z,2.85
2023-01-19T08:30:43.729Z,2.47
2023-01-19T08:33:12.602Z,2.92
2023-01-19T08:35:47.320Z,2.92
2023-01-19T08:38:14.247Z,3.17
2023-01-19T08:40:42.003Z,4.40
2023-01-19T08:43:14.262Z,6.40
2023-01-19T08:45:51.891Z,4.50
2023-01-19T08:48:22.368Z,3.17
2023-01-19T08:50:50.535Z,2.70
2023-01-19T08:53:17.857Z,2.90
2023-01-19T08:55:44.607Z,2.85
2023-01-19T08:58:11.478Z,3.22
2023-01-19T09:00:39.395Z,3.90
2023-01-19T09:03:08.455Z,3.30
2023-01-19T09:05:38.759Z,3.42
2023-01-19T09:08:09.710Z,2.65
2023-01-19T09:10:37.987Z,2.78
2023-01-19T09:13:11.094Z,2.83
2023-01-19T09:15:39.384Z,2.88
2023-01-19T09:18:10.152Z,2.17
2023-01-19T09:20:39.010Z,2.35
2023-01-19T09:23:06.459Z,2.78
2023-01-19T09:25:33.215Z,1.85
2023-01-19T09:28:00.961Z,2.28
2023-01-19T09:30:28.096Z,2.38
2023-01-19T09:32:54.896Z,2.55
2023-01-19T09:35:21.692Z,1.90
2023-01-19T09:37:48.690Z,1.95
2023-01-19T09:40:16.364Z,2.35
2023-01-19T09:42:47.287Z,2.00
2023-01-19T09:45:36.290Z,2.63
2023-01-19T09:48:11.873Z,2.20
2023-01-19T09:50:46.589Z,1.95
2023-01-19T09:53:27.693Z,1.92
2023-01-19T09:55:54.768Z,1.83
2023-01-19T09:58:22.595Z,1.98
2023-01-19T10:01:02.521Z,2.28
2023-01-19T10:03:30.467Z,1.83
2023-01-19T10:06:04.077Z,2.03
2023-01-19T10:08:46.942Z,1.98
2023-01-19T10:11:26.296Z,2.78
2023-01-19T10:13:54.352Z,2.13
2023-01-19T10:16:53.459Z,2.03
2023-01-19T10:19:46.622Z,1.65
2023-01-19T10:22:25.090Z,1.52
2023-01-19T10:25:05.937Z,2.50
2023-01-19T10:27:35.299Z,2.15
2023-01-19T10:30:02.441Z,1.52
2023-01-19T10:32:35.847Z,2.35
2023-01-19T10:35:14.320Z,1.80
2023-01-19T10:37:41.959Z,2.13
2023-01-19T10:40:11.731Z,1.55
2023-01-19T10:42:41.269Z,2.35
2023-01-19T10:45:40.366Z,1.58
2023-01-19T10:48:07.894Z,1.80
2023-01-19T10:50:39.846Z,1.30
2023-01-19T10:53:23.790Z,1.70
2023-01-19T10:56:11.864Z,1.60
2023-01-19T10:58:40.257Z,1.73
2023-01-19T11:01:18.160Z,1.95
2023-01-19T11:03:47.907Z,1.48
2023-01-19T11:06:17.719Z,1.92
2023-01-19T11:08:47.267Z,1.73
2023-01-19T11:11:15.918Z,2.03
2023-01-19T11:13:44.037Z,1.55
2023-01-19T11:16:27.756Z,1.77
2023-01-19T11:18:56.628Z,1.65
2023-01-19T11:21:31.947Z,1.48
2023-01-19T11:24:05.432Z,1.30
2023-01-19T11:26:43.253Z,1.60
2023-01-19T11:29:19.856Z,1.42
2023-01-19T11:31:47.304Z,1.73
2023-01-19T11:34:33.864Z,1.83
2023-01-19T11:37:28.523Z,1.40
2023-01-19T11:40:00.187Z,2.22
2023-01-19T11:42:29.994Z,1.97
2023-01-19T11:45:07.407Z,2.80
2023-01-19T11:47:44.398Z,1.60
2023-01-19T11:50:42.576Z,1.65
2023-01-19T11:53:29.350Z,2.17
2023-01-19T11:56:04.827Z,1.40
2023-01-19T11:58:39.340Z,1.45
2023-01-19T12:01:29.809Z,1.67
2023-01-19T12:04:28.963Z,1.17
2023-01-19T12:06:58.130Z,1.67
2023-01-19T12:09:36.918Z,1.80
2023-01-19T12:12:07.705Z,1.45
2023-01-19T12:14:43.865Z,1.50
2023-01-19T12:17:27.680Z,1.25
2023-01-19T12:20:23.845Z,1.20
2023-01-19T12:23:11.715Z,1.50
2023-01-19T12:25:53.955Z,1.35
2023-01-19T12:28:28.642Z,1.38
2023-01-19T12:30:57.029Z,1.38
2023-01-19T12:33:37.652Z,1.58
2023-01-19T12:36:16.574Z,1.85
2023-01-19T12:38:48.789Z,1.17
2023-01-19T12:43:46.087Z,1.30
2023-01-19T12:46:32.058Z,1.20
2023-01-19T12:49:23.321Z,1.42
2023-01-19T12:51:52.993Z,1.90
2023-01-19T12:54:59.868Z,1.30
2023-01-19T12:57:47.082Z,1.10
2023-01-19T13:00:22.895Z,1.10
2023-01-19T13:02:54.486Z,1.40
2023-01-19T13:05:44.657Z,1.13
2023-01-19T13:08:14.964Z,1.30
2023-01-19T13:11:13.126Z,1.52
2023-01-19T13:13:44.688Z,1.00
2023-01-19T13:16:25.449Z,1.27
2023-01-19T13:18:57.144Z,1.48
2023-01-19T13:21:30.424Z,1.77
2023-01-19T13:23:59.309Z,1.83
2023-01-19T13:26:30.751Z,1.35
2023-01-19T13:29:06.303Z,1.48
2023-01-19T13:31:39.560Z,1.52
2023-01-19T13:34:13.544Z,1.27
2023-01-19T13:36:45.307Z,1.00
2023-01-19T13:39:18.669Z,1.90
2023-01-19T13:41:47.074Z,1.00
2023-01-19T13:44:29.957Z,1.27
2023-01-19T13:46:59.540Z,1.20
2023-01-19T13:49:36.873Z,0.95
2023-01-19T13:52:19.244Z,0.90
2023-01-19T13:54:53.343Z,1.10
2023-01-19T13:57:26.053Z,1.45
2023-01-19T14:02:59.240Z,1.60
2023-01-19T14:05:28.908Z,1.60
2023-01-19T14:08:13.350Z,4.15
2023-01-19T14:10:47.377Z,3.10
2023-01-19T14:13:22.940Z,2.13
2023-01-19T14:15:51.738Z,11.77
2023-01-19T14:18:21.538Z,3.53
2023-01-19T14:21:01.202Z,2.42
2023-01-19T14:24:06.876Z,1.23
2023-01-19T14:26:51.280Z,26.33
2023-01-19T14:29:37.980Z,3.90
2023-01-19T14:32:10.125Z,1.90
2023-01-19T14:34:41.640Z,3.97
2023-01-19T14:37:23.082Z,2.35
2023-01-19T14:39:54.480Z,1.23
2023-01-19T14:42:43.980Z,3.10
2023-01-19T14:45:38.028Z,1.60
2023-01-19T14:48:18.048Z,1.77
2023-01-19T14:51:01.556Z,1.55
2023-01-19T14:53:34.357Z,1.10
2023-01-19T14:56:04.849Z,0.80
2023-01-19T14:58:34.026Z,1.45
2023-01-19T15:01:01.877Z,1.00
2023-01-19T15:03:44.372Z,1.20
2023-01-19T15:06:17.626Z,0.88
2023-01-19T15:08:45.856Z,1.08
2023-01-19T15:11:26.534Z,1.15
2023-01-19T15:13:55.168Z,1.25
2023-01-19T15:16:26.105Z,0.88
2023-01-19T15:18:53.041Z,0.93
2023-01-19T15:21:23.482Z,1.23
2023-01-19T15:23:54.413Z,1.35
2023-01-19T15:26:24.716Z,1.45
2023-01-19T15:28:51.789Z,1.15
2023-01-19T15:31:21.951Z,1.63
2023-01-19T15:33:49.025Z,1.60
2023-01-19T15:36:18.591Z,1.30
2023-01-19T15:38:45.956Z,0.98
2023-01-19T15:41:23.505Z,1.08
2023-01-19T15:43:50.861Z,1.38
2023-01-19T15:46:20.796Z,1.50
2023-01-19T15:48:48.370Z,1.10
2023-01-19T15:51:17.766Z,1.80
2023-01-19T15:53:45.120Z,1.50
2023-01-19T15:56:17.182Z,2.08
2023-01-19T15:58:44.309Z,1.05
2023-01-19T16:01:17.119Z,1.65
2023-01-19T16:03:44.715Z,1.00
2023-01-19T16:06:12.962Z,1.40
2023-01-19T16:08:40.290Z,4.22
2023-01-19T16:11:14.816Z,3.45
2023-01-19T16:13:46.158Z,2.33
2023-01-19T16:16:19.000Z,2.10
2023-01-19T16:18:45.854Z,2.05
2023-01-19T16:21:12.759Z,2.08
2023-01-19T16:23:39.917Z,1.80
2023-01-19T16:26:22.262Z,1.80
2023-01-19T16:28:49.011Z,2.08
2023-01-19T16:31:16.482Z,2.35
2023-01-19T16:33:45.100Z,3.08
2023-01-19T16:36:41.787Z,3.45
2023-01-19T16:39:13.652Z,4.25
2023-01-19T16:41:40.761Z,4.37
2023-01-19T16:44:09.737Z,7.78
2023-01-19T16:46:40.956Z,8.38
2023-01-19T16:49:15.727Z,5.85
2023-01-19T16:51:44.648Z,4.22
2023-01-19T16:54:16.150Z,3.30
2023-01-19T16:56:43.219Z,3.35
2023-01-19T16:59:12.687Z,4.10
2023-01-19T17:01:40.091Z,6.47
2023-01-19T17:04:07.192Z,4.80
2023-01-19T17:06:49.909Z,4.30
2023-01-19T17:09:17.967Z,4.70
2023-01-19T17:11:45.667Z,4.93
2023-01-19T17:14:15.746Z,3.25
2023-01-19T17:16:43.730Z,3.40
2023-01-19T17:19:15.835Z,3.90
2023-01-19T17:21:46.208Z,4.60
2023-01-19T17:24:13.361Z,5.05
2023-01-19T17:26:40.781Z,4.82
2023-01-19T17:29:09.465Z,5.18
2023-01-19T17:31:36.781Z,3.50
2023-01-19T17:34:03.677Z,3.58
2023-01-19T17:36:32.172Z,3.10
2023-01-19T17:39:04.082Z,3.20
2023-01-19T17:41:32.805Z,3.75
2023-01-19T17:44:00.658Z,4.55
2023-01-19T17:46:29.170Z,5.75
2023-01-19T17:49:01.656Z,6.35
2023-01-19T17:51:30.109Z,6.13
2023-01-19T17:53:57.793Z,5.68
2023-01-19T17:56:29.533Z,7.30
2023-01-19T17:58:57.955Z,8.00
2023-01-19T18:01:27.574Z,6.55
2023-01-19T18:03:55.405Z,6.50
2023-01-19T18:06:24.282Z,7.40
2023-01-19T18:08:51.568Z,8.88
2023-01-19T18:11:20.788Z,10.02
2023-01-19T18:13:49.300Z,10.18
2023-01-19T18:16:27.855Z,10.25
2023-01-19T18:18:56.330Z,11.23
2023-01-19T18:21:24.895Z,11.98
2023-01-19T18:23:51.635Z,12.98
2023-01-19T18:26:22.576Z,13.70
2023-01-19T18:28:49.868Z,13.15
2023-01-19T18:31:18.793Z,15.77
2023-01-19T18:33:46.733Z,16.23
2023-01-19T18:36:14.423Z,15.50
2023-01-19T18:38:41.859Z,14.43
2023-01-19T18:41:11.734Z,15.50
2023-01-19T18:43:38.797Z,15.60
2023-01-19T18:46:06.373Z,17.23
2023-01-19T18:48:33.466Z,17.98
2023-01-19T18:51:03.552Z,17.90
2023-01-19T18:53:31.747Z,16.98
2023-01-19T18:56:01.812Z,19.05
2023-01-19T18:58:29.381Z,16.90
2023-01-19T19:00:56.831Z,17.05
2023-01-19T19:03:23.953Z,15.57
2023-01-19T19:05:50.906Z,16.80
2023-01-19T19:08:17.971Z,15.50
2023-01-19T19:10:45.153Z,15.38
2023-01-19T19:13:13.661Z,14.75
2023-01-19T19:15:40.502Z,14.82
2023-01-19T19:18:09.092Z,14.35
2023-01-19T19:20:38.951Z,14.68
2023-01-19T19:23:05.763Z,14.27
2023-01-19T19:25:33.144Z,12.63
2023-01-19T19:28:00.114Z,12.85
2023-01-19T19:30:26.910Z,13.52
2023-01-19T19:32:54.487Z,11.52
2023-01-19T19:35:21.601Z,10.55
2023-01-19T19:37:49.098Z,8.65
2023-01-19T19:40:16.396Z,5.45
2023-01-19T19:42:44.525Z,6.10
2023-01-19T19:45:11.912Z,5.63
2023-01-19T19:47:39.015Z,5.70
2023-01-19T19:50:06.093Z,4.72
2023-01-19T19:52:41.025Z,4.28
2023-01-19T19:55:09.563Z,4.35
2023-01-19T19:57:36.435Z,4.40
2023-01-19T20:00:07.216Z,3.95
2023-01-19T20:02:37.222Z,4.40
2023-01-19T20:05:04.998Z,4.90
2023-01-19T20:07:32.726Z,6.22
2023-01-19T20:09:59.450Z,4.07
2023-01-19T20:12:26.181Z,2.03
2023-01-19T20:14:52.927Z,1.40
2023-01-19T20:17:20.684Z,1.30
2023-01-19T20:19:48.927Z,1.27
2023-01-19T20:22:16.153Z,1.17
2023-01-19T20:24:45.699Z,1.23
2023-01-19T20:27:12.809Z,1.67
2023-01-19T20:29:39.604Z,1.42
2023-01-19T20:32:06.666Z,2.03
2023-01-19T20:34:33.917Z,1.65
2023-01-19T20:37:01.797Z,2.30
2023-01-19T20:39:30.249Z,2.20
2023-01-19T20:41:57.146Z,2.35
2023-01-19T20:44:25.467Z,2.75
2023-01-19T20:46:53.597Z,2.95
2023-01-19T20:49:20.786Z,2.70
2023-01-19T20:51:48.443Z,2.50
2023-01-19T20:54:17.594Z,2.80
2023-01-19T20:56:44.708Z,3.05
2023-01-19T20:59:12.703Z,2.55
2023-01-19T21:01:40.834Z,2.70
2023-01-19T21:04:07.971Z,5.43
2023-01-19T21:06:34.720Z,2.53
2023-01-19T21:09:01.607Z,2.53
2023-01-19T21:11:28.611Z,2.30
2023-01-19T21:13:56.494Z,1.80
2023-01-19T21:16:26.493Z,2.63
2023-01-19T21:18:53.977Z,2.80
2023-01-19T21:21:30.490Z,7.03
2023-01-19T21:24:01.771Z,5.18
2023-01-19T21:26:33.496Z,5.85
2023-01-19T21:29:01.675Z,4.33
2023-01-19T21:31:28.954Z,2.90
2023-01-19T21:33:56.883Z,2.90
2023-01-19T21:36:24.868Z,2.45
2023-01-19T21:38:52.579Z,2.70
2023-01-19T21:41:20.548Z,2.40
2023-01-19T21:43:47.886Z,3.03
2023-01-19T21:46:19.578Z,3.03
2023-01-19T21:48:47.098Z,3.03
2023-01-19T21:51:15.048Z,3.45
2023-01-19T21:53:41.994Z,3.78
2023-01-19T21:56:09.820Z,4.13
2023-01-19T21:58:36.567Z,4.32
2023-01-19T22:01:08.647Z,4.95
2023-01-19T22:03:35.374Z,5.75
2023-01-19T22:06:13.437Z,5.35
2023-01-19T22:08:41.337Z,4.82
2023-01-19T22:11:10.737Z,4.68
2023-01-19T22:13:40.866Z,4.55
2023-01-19T22:16:16.578Z,6.40
2023-01-19T22:18:45.783Z,5.40
2023-01-19T22:21:15.882Z,5.22
2023-01-19T22:23:43.166Z,4.43
2023-01-19T22:26:11.338Z,4.78
2023-01-19T22:28:38.538Z,4.78
2023-01-19T22:31:09.858Z,5.03
2023-01-19T22:33:36.908Z,4.93
2023-01-19T22:36:25.358Z,5.10
2023-01-19T22:38:57.422Z,4.28
2023-01-19T22:41:26.867Z,3.63
2023-01-19T22:43:56.357Z,4.40
2023-01-19T22:46:28.920Z,4.53
2023-01-19T22:48:56.553Z,4.35
2023-01-19T22:51:24.242Z,3.38
2023-01-19T22:53:51.895Z,3.22
2023-01-19T22:56:21.037Z,4.10
2023-01-19T22:58:48.403Z,4.35
2023-01-19T23:01:20.777Z,6.22
2023-01-19T23:03:47.572Z,4.68
2023-01-19T23:06:20.252Z,4.47
2023-01-19T23:11:20.267Z,3.92
2023-01-19T23:13:47.036Z,3.92
2023-01-19T23:16:14.433Z,3.67
2023-01-19T23:18:42.121Z,4.30
2023-01-19T23:21:17.923Z,4.68
2023-01-19T23:23:45.750Z,4.70
2023-01-19T23:26:18.371Z,3.92
2023-01-19T23:28:46.757Z,4.28
2023-01-19T23:31:17.553Z,3.90
2023-01-19T23:33:44.766Z,4.63
2023-01-19T23:36:12.360Z,4.20
2023-01-19T23:38:40.120Z,3.88
2023-01-19T23:41:07.611Z,3.88
2023-01-19T23:43:34.857Z,3.75
2023-01-19T23:46:06.238Z,3.95
2023-01-19T23:48:34.543Z,3.90
2023-01-19T23:51:13.777Z,4.22
2023-01-19T23:53:40.847Z,3.70
2023-01-19T23:56:14.617Z,5.03
2023-01-19T23:58:41.792Z,5.10
